»·PEaware :: N751LU L52-L88

N751LU :: L52-L88

FLIGHT INFORMATION

Flight Status: Arrived
Operator: Privately registered:
United States
More flights under this callsign
Pilot: Lewis P. (22696)
Aircraft: PIPER PA-28R-201 ARROW
(P28R)
More flights by this aircraft type
Origin: L52 Oceano Co
United States
Destination: L88 New Cuyama
United States
More flights between these airports :: More routes between these airports
Route:
File this flight plan on PilotEdge
Remarks: Sample flight plan
Altitude:
(Current/Filed)
5,000ft
Speed:
(Current/Filed)
115kts
Departed: 25-Dec-18 01:00 PM
Arrived: 25-Dec-18 01:31 PM
Distance/Time
Traveled:
47nm/0:30
Distance/Time
To Go:
Arrived

Flight Plot

Page will automatically refresh every two minutes.


Map Options




Map Legend


Flown Route
Filed Route
Departure Airport
Arrival Airport
Navaid (VOR, NDB)
Fix

Horizontal Profiles

Position Reports

Time Latitude Longitude Heading Altitude Ground
Speed
25-Dec-18 12:46 35.102465 -120.622783 34 16ft 0kts
25-Dec-18 12:47 35.102465 -120.622783 34 16ft 0kts
25-Dec-18 12:48 35.102465 -120.622783 34 16ft 0kts
25-Dec-18 12:49 35.102465 -120.622783 34 16ft 0kts
25-Dec-18 12:50 35.102465 -120.622783 34 16ft 0kts
25-Dec-18 12:51 35.102309 -120.622359 123 16ft 5kts
25-Dec-18 12:53 35.101358 -120.622514 209 15ft 6kts
25-Dec-18 12:54 35.100538 -120.621344 126 16ft 8kts
25-Dec-18 12:55 35.099533 -120.619485 117 16ft 2kts
25-Dec-18 12:56 35.099528 -120.619361 37 16ft 0kts
25-Dec-18 12:57 35.099528 -120.619361 37 16ft 0kts
25-Dec-18 12:58 35.099528 -120.619361 37 16ft 0kts
25-Dec-18 12:59 35.099636 -120.619262 35 16ft 7kts
25-Dec-18 13:00 35.100587 -120.620427 304 16ft 42kts
25-Dec-18 13:01 35.108809 -120.624283 108 1056ft 89kts
25-Dec-18 13:02 35.101472 -120.593575 91 2305ft 96kts
25-Dec-18 13:03 35.090584 -120.563662 112 2982ft 106kts
25-Dec-18 13:04 35.077343 -120.529248 124 3229ft 122kts
25-Dec-18 13:05 35.051552 -120.501515 132 3455ft 123kts
25-Dec-18 13:06 35.025439 -120.473602 133 3524ft 125kts
25-Dec-18 13:07 35.002682 -120.441741 107 3517ft 125kts
25-Dec-18 13:08 34.998378 -120.400080 76 3155ft 125kts
25-Dec-18 13:08 35.002871 -120.367276 48 2659ft 119kts
25-Dec-18 13:10 35.018016 -120.322226 74 1541ft 127kts
25-Dec-18 13:11 35.020691 -120.285044 53 1583ft 91kts
25-Dec-18 13:11 35.023468 -120.257650 68 1844ft 108kts
25-Dec-18 13:13 35.020310 -120.211953 58 1819ft 112kts
25-Dec-18 13:13 35.034019 -120.187943 28 2015ft 98kts
25-Dec-18 13:14 35.057609 -120.172667 9 2350ft 91kts
25-Dec-18 13:15 35.078163 -120.153844 42 2598ft 101kts
25-Dec-18 13:16 35.095445 -120.126692 53 2750ft 109kts
25-Dec-18 13:18 35.106328 -120.083905 105 2709ft 131kts
25-Dec-18 13:18 35.094877 -120.048378 100 2536ft 123kts
25-Dec-18 13:20 35.076712 -120.006727 125 2772ft 120kts
25-Dec-18 13:20 35.063303 -119.975999 123 2897ft 122kts
25-Dec-18 13:21 35.054436 -119.936683 90 3034ft 120kts
25-Dec-18 13:22 35.044906 -119.899172 99 3169ft 120kts
25-Dec-18 13:23 35.023236 -119.863203 132 2992ft 131kts
25-Dec-18 13:24 35.001221 -119.827410 115 2851ft 136kts
25-Dec-18 13:25 34.985163 -119.789589 110 3010ft 130kts
25-Dec-18 13:26 34.968598 -119.751921 122 3398ft 126kts
25-Dec-18 13:27 34.946661 -119.717837 124 3598ft 124kts
25-Dec-18 13:28 34.929804 -119.684023 119 2771ft 99kts
25-Dec-18 13:29 34.936323 -119.677174 304 2309ft 51kts
25-Dec-18 13:30 34.941240 -119.688749 296 2162ft 23kts
25-Dec-18 13:31 34.942985 -119.691035 31 2154ft 8kts
25-Dec-18 13:32 34.943350 -119.690788 198 2154ft 0kts
25-Dec-18 13:33 34.943350 -119.690788 198 2154ft 0kts
25-Dec-18 13:34 34.943350 -119.690788 198 2154ft 0kts
25-Dec-18 13:35 34.943350 -119.690788 198 2154ft 0kts
25-Dec-18 13:36 34.943350 -119.690788 198 2154ft 0kts
25-Dec-18 13:37 34.943350 -119.690788 198 2154ft 0kts
25-Dec-18 13:38 34.943350 -119.690788 198 2154ft 0kts
25-Dec-18 13:39 34.943350 -119.690788 198 2154ft 0kts
25-Dec-18 13:40 34.943350 -119.690788 198 2154ft 0kts
25-Dec-18 13:41 34.943350 -119.690788 198 2154ft 0kts

Navigation Log

Ident Type
Flight plan parsing failed, navigation log unavailable